Report METAR

 

KSJC - San Jose, California, USA
Distance from station: NE 14km
Dati ricevuti: 21/02/2024 15:53
Few Clouds
Few Clouds
 Vento da SE
Vento: SE 7 km/h
Temperatura: 7°C
Temperatura Vento: 6°C
P.to Rugiada: 5°C
Umidità: 87%
Barometro: 1020.3 hPa
Nuvole: Few Clouds
Visibility: 16 km
Cloud details: Few Clouds 335 m
2024/02/21 14:53 KSJC 211453Z 13004KT 10SM FEW011 07/05 A3013 RMK AO2 SLP200 T00670050 51010
KNUQ - Moffett Nas/Mtn, California, USA
Distance from station: N 14km
Dati ricevuti: 21/02/2024 15:55
Sereno
Sereno
 Vento da SSE
Vento: SSE 6 km/h
Temperatura: 8°C
P.to Rugiada: 7°C
Umidità: 93%
Barometro: 1020 hPa
Nuvole: Sereno
Visibility: 16 km
2024/02/21 14:55 KNUQ 211455Z AUTO 16003KT 10SM CLR 08/07 A3012 RMK AO2
 
KPAO - Palo Alto, California, USA
Distance from station: NNO 23km
Dati ricevuti: 21/02/2024 15:47
Few Clouds
Few Clouds
 Vento da Variabile
Vento: Variabile 6 km/h
Temperatura: 6°C
P.to Rugiada: 6°C
Umidità: 100%
Barometro: 1020.3 hPa
Nuvole: Few Clouds
Visibility: 16 km
Cloud details: Few Clouds 610 m
2024/02/21 14:47 KPAO 211447Z VRB03KT 10SM FEW020 06/06 A3013
KRHV - San Jose/Reid, California, USA
Distance from station: ENE 19km
Dati ricevuti: 21/02/2024 15:55
Nebbia, Coperto
Nebbia, Coperto
 Vento da calmo
Vento: Calma
Temperatura: 8°C
P.to Rugiada: 7°C
Umidità: 93%
Barometro: 1020.3 hPa
Summary: Nebbia
Nuvole: Coperto
Visibility: 0 km
Cloud details: Coperto 30 m
2024/02/21 14:55 KRHV 211455Z 00000KT 0SM FG OVC001 08/07 A3013
 
KOAK - Oakland, California, USA
Distance from station: NNO 50km
Dati ricevuti: 21/02/2024 16:00
Nebbia, Coperto
Nebbia, Coperto
 Vento da SE
Vento: SE 15 km/h
Temperatura: 9°C
Temperatura Vento: 7°C
P.to Rugiada: 7°C
Umidità: 87%
Barometro: 1020.7 hPa
Summary: Nebbia
Nuvole: Coperto
Visibility: 0.8 km
Cloud details: Coperto 61 m
2024/02/21 15:00 KOAK 211500Z 14008KT 1/2SM FG VV002 09/07 A3014 RMK AO2 T00890072 RVRNO
KSQL - San Carlos Airpo, California, USA
Distance from station: NO 34km
Dati ricevuti: 21/02/2024 15:55
Molto nuvoloso
Molto nuvoloso
 Vento da calmo
Vento: Calma
Temperatura: 7°C
P.to Rugiada: 7°C
Umidità: 100%
Barometro: 1020.3 hPa
Nuvole: Molto nuvoloso
Visibility: 16 km
Cloud details: Molto nuvoloso 1067 m
2024/02/21 14:55 KSQL 211455Z AUTO 00000KT 10SM BKN035 07/07 A3013 RMK AO2
 
KSFO - San Francisco, California, USA
Distance from station: NO 49km
Dati ricevuti: 21/02/2024 15:56
Few Clouds
Few Clouds
 Vento da S
Vento: S 7 km/h
Temperatura: 8°C
Temperatura Vento: 7°C
P.to Rugiada: 7°C
Umidità: 93%
Barometro: 1020 hPa
Nuvole: Few Clouds
Visibility: 16 km
Cloud details: Few Clouds 457 m
2024/02/21 14:56 KSFO 211456Z 17004KT 10SM FEW015 08/07 A3012 RMK AO2 SLP198 T00780067 53009
KE16 - San Martin, California, USA
Distance from station: ESE 43km
Dati ricevuti: 21/02/2024 15:55
Nebbia, Coperto
Nebbia, Coperto
 Vento da ESE
Vento: ESE 7 km/h
Temperatura: 9°C
Temperatura Vento: 8°C
P.to Rugiada: 9°C
Umidità: 100%
Barometro: 1021 hPa
Summary: Nebbia
Nuvole: Coperto
Visibility: 0.4 km
Cloud details: Coperto 61 m
2024/02/21 14:55 KE16 211455Z AUTO 11004KT 1/4SM FG OVC002 09/09 A3015 RMK AO2
 
KWVI - Watsonville, California, USA
Distance from station: SSE 44km
Dati ricevuti: 21/02/2024 16:03
Mist, Coperto
Mist, Coperto
 Vento da calmo
Vento: Calma
Temperatura: 9°C
P.to Rugiada: 9°C
Umidità: 100%
Barometro: 1020.3 hPa
Summary: Mist
Nuvole: Coperto
Visibility: 2.4 km
Cloud details: Coperto 91 m
2024/02/21 15:03 KWVI 211503Z AUTO 00000KT 1 1/2SM BR OVC003 09/09 A3013 RMK AO2 T00890089
KHAF - Half Moon Bay, California, USA
Distance from station: ONO 50km
Dati ricevuti: 21/02/2024 15:55
Mist, Nubi sparse
Mist, Nubi sparse
 Vento da calmo
Vento: Calma
Temperatura: 7°C
P.to Rugiada: 7°C
Umidità: 100%
Barometro: 1020 hPa
Summary: Mist
Nuvole: Few Clouds
Visibility: 8 km
Cloud details: Few Clouds 549 m
Few Clouds 884 m
2024/02/21 14:55 KHAF 211455Z AUTO 00000KT 5SM BR FEW018 FEW029 07/07 A3012 RMK AO2
 
KHWD - Hayward, California, USA
Distance from station: N 44km
Dati ricevuti: 21/02/2024 15:54
Mist, Sereno
Mist, Sereno
 Vento da calmo
Vento: Calma
Temperatura: 9°C
P.to Rugiada: 8°C
Umidità: 94%
Barometro: 1020 hPa
Summary: Mist
Nuvole: Sereno
Visibility: 8 km
2024/02/21 14:54 KHWD 211454Z AUTO 00000KT 5SM BR CLR 09/08 A3012 RMK AO2 SLP208 T00890078 53006
KLVK - Livermore, California, USA
Distance from station: NNE 51km
Dati ricevuti: 21/02/2024 15:53
Nebbia, Coperto
Nebbia, Coperto
 Vento da ENE
Vento: ENE 7 km/h
Temperatura: 7°C
Temperatura Vento: 6°C
P.to Rugiada: 7°C
Umidità: 100%
Barometro: 1020 hPa
Summary: Nebbia
Nuvole: Coperto
Visibility: 0.8 km
Cloud details: Coperto 61 m
2024/02/21 14:53 KLVK 211453Z 07004KT 1/2SM FG VV002 07/07 A3012 RMK AO2 SLP198 T00670067 53007